sensor_id;sensor_type;location;lat;lon;timestamp;P1;durP1;ratioP1;P2;durP2;ratioP2
15104;SDS011;7653;48.994;9.212;2022-07-30T00:01:03;3.40;;;3.10;;
15104;SDS011;7653;48.994;9.212;2022-07-30T00:03:58;3.97;;;3.10;;
15104;SDS011;7653;48.994;9.212;2022-07-30T00:06:41;4.80;;;3.37;;
15104;SDS011;7653;48.994;9.212;2022-07-30T00:09:15;3.40;;;3.13;;
15104;SDS011;7653;48.994;9.212;2022-07-30T00:11:48;4.10;;;3.63;;
15104;SDS011;7653;48.994;9.212;2022-07-30T00:14:24;5.37;;;3.10;;
15104;SDS011;7653;48.994;9.212;2022-07-30T00:16:55;3.67;;;3.17;;
15104;SDS011;7653;48.994;9.212;2022-07-30T00:19:23;3.33;;;3.07;;
15104;SDS011;7653;48.994;9.212;2022-07-30T00:21:54;3.70;;;3.47;;
15104;SDS011;7653;48.994;9.212;2022-07-30T00:24:24;3.60;;;3.30;;
15104;SDS011;7653;48.994;9.212;2022-07-30T00:26:57;3.83;;;3.40;;
15104;SDS011;7653;48.994;9.212;2022-07-30T00:29:44;3.90;;;3.40;;
15104;SDS011;7653;48.994;9.212;2022-07-30T00:32:12;3.43;;;3.20;;
15104;SDS011;7653;48.994;9.212;2022-07-30T00:34:40;3.73;;;2.90;;
15104;SDS011;7653;48.994;9.212;2022-07-30T00:37:09;3.97;;;3.30;;
15104;SDS011;7653;48.994;9.212;2022-07-30T00:39:37;3.73;;;3.27;;
15104;SDS011;7653;48.994;9.212;2022-07-30T00:42:51;4.30;;;3.90;;
15104;SDS011;7653;48.994;9.212;2022-07-30T00:51:39;3.70;;;3.33;;
15104;SDS011;7653;48.994;9.212;2022-07-30T00:54:19;4.57;;;3.63;;
15104;SDS011;7653;48.994;9.212;2022-07-30T00:57:16;3.93;;;3.50;;
15104;SDS011;7653;48.994;9.212;2022-07-30T01:00:22;5.13;;;3.50;;
15104;SDS011;7653;48.994;9.212;2022-07-30T01:02:49;3.50;;;3.20;;
15104;SDS011;7653;48.994;9.212;2022-07-30T01:05:47;3.80;;;3.23;;
15104;SDS011;7653;48.994;9.212;2022-07-30T01:08:15;3.73;;;3.10;;
15104;SDS011;7653;48.994;9.212;2022-07-30T01:11:16;3.10;;;2.90;;
15104;SDS011;7653;48.994;9.212;2022-07-30T01:13:54;4.80;;;3.37;;
15104;SDS011;7653;48.994;9.212;2022-07-30T01:16:47;3.87;;;3.23;;
15104;SDS011;7653;48.994;9.212;2022-07-30T01:19:42;4.73;;;3.60;;
15104;SDS011;7653;48.994;9.212;2022-07-30T01:22:44;3.77;;;3.30;;
15104;SDS011;7653;48.994;9.212;2022-07-30T01:28:53;3.40;;;3.10;;
15104;SDS011;7653;48.994;9.212;2022-07-30T01:31:45;4.53;;;3.43;;
15104;SDS011;7653;48.994;9.212;2022-07-30T01:34:55;5.37;;;3.00;;
15104;SDS011;7653;48.994;9.212;2022-07-30T01:37:29;3.80;;;3.50;;
15104;SDS011;7653;48.994;9.212;2022-07-30T01:40:23;4.63;;;3.33;;
15104;SDS011;7653;48.994;9.212;2022-07-30T01:43:16;3.60;;;3.30;;
15104;SDS011;7653;48.994;9.212;2022-07-30T01:46:04;3.47;;;3.17;;
15104;SDS011;7653;48.994;9.212;2022-07-30T01:48:35;4.20;;;3.40;;
15104;SDS011;7653;48.994;9.212;2022-07-30T01:51:23;4.13;;;3.37;;
15104;SDS011;7653;48.994;9.212;2022-07-30T01:54:10;4.20;;;3.80;;
15104;SDS011;7653;48.994;9.212;2022-07-30T01:56:48;4.13;;;3.80;;
15104;SDS011;7653;48.994;9.212;2022-07-30T01:59:29;4.13;;;3.40;;
15104;SDS011;7653;48.994;9.212;2022-07-30T02:02:01;4.33;;;3.90;;
15104;SDS011;7653;48.994;9.212;2022-07-30T02:04:59;4.33;;;3.93;;
15104;SDS011;7653;48.994;9.212;2022-07-30T02:16:23;4.03;;;3.73;;
15104;SDS011;7653;48.994;9.212;2022-07-30T02:21:46;3.63;;;3.33;;
15104;SDS011;7653;48.994;9.212;2022-07-30T02:24:24;3.57;;;3.27;;
15104;SDS011;7653;48.994;9.212;2022-07-30T02:27:16;4.37;;;3.90;;
15104;SDS011;7653;48.994;9.212;2022-07-30T02:30:04;4.73;;;4.13;;
15104;SDS011;7653;48.994;9.212;2022-07-30T02:32:57;4.40;;;4.00;;
15104;SDS011;7653;48.994;9.212;2022-07-30T02:35:58;4.80;;;3.80;;
15104;SDS011;7653;48.994;9.212;2022-07-30T02:38:29;3.87;;;3.40;;
15104;SDS011;7653;48.994;9.212;2022-07-30T02:41:14;3.90;;;3.60;;
15104;SDS011;7653;48.994;9.212;2022-07-30T03:06:57;3.87;;;3.57;;
15104;SDS011;7653;48.994;9.212;2022-07-30T03:09:50;4.07;;;3.63;;
15104;SDS011;7653;48.994;9.212;2022-07-30T03:15:12;4.47;;;4.07;;
15104;SDS011;7653;48.994;9.212;2022-07-30T03:17:48;4.07;;;3.70;;
15104;SDS011;7653;48.994;9.212;2022-07-30T03:20:29;4.27;;;3.97;;
15104;SDS011;7653;48.994;9.212;2022-07-30T03:56:12;4.87;;;4.20;;
15104;SDS011;7653;48.994;9.212;2022-07-30T03:58:39;5.10;;;4.60;;
15104;SDS011;7653;48.994;9.212;2022-07-30T04:01:05;5.33;;;4.83;;
15104;SDS011;7653;48.994;9.212;2022-07-30T04:03:31;4.70;;;4.30;;
15104;SDS011;7653;48.994;9.212;2022-07-30T04:05:58;4.80;;;4.40;;
15104;SDS011;7653;48.994;9.212;2022-07-30T04:08:24;4.80;;;4.40;;
15104;SDS011;7653;48.994;9.212;2022-07-30T04:10:49;4.50;;;4.20;;
15104;SDS011;7653;48.994;9.212;2022-07-30T04:13:16;5.13;;;4.63;;
15104;SDS011;7653;48.994;9.212;2022-07-30T04:15:55;5.97;;;4.87;;
15104;SDS011;7653;48.994;9.212;2022-07-30T04:18:35;5.50;;;4.53;;
15104;SDS011;7653;48.994;9.212;2022-07-30T04:21:06;5.13;;;4.30;;
15104;SDS011;7653;48.994;9.212;2022-07-30T04:23:44;5.03;;;4.53;;
15104;SDS011;7653;48.994;9.212;2022-07-30T04:26:21;5.00;;;4.60;;
15104;SDS011;7653;48.994;9.212;2022-07-30T04:29:03;4.53;;;4.13;;
15104;SDS011;7653;48.994;9.212;2022-07-30T04:31:30;5.43;;;4.23;;
15104;SDS011;7653;48.994;9.212;2022-07-30T04:36:37;4.90;;;4.17;;
15104;SDS011;7653;48.994;9.212;2022-07-30T04:39:04;5.30;;;4.60;;
15104;SDS011;7653;48.994;9.212;2022-07-30T04:41:33;6.10;;;4.40;;
15104;SDS011;7653;48.994;9.212;2022-07-30T04:44:03;4.73;;;4.30;;
15104;SDS011;7653;48.994;9.212;2022-07-30T04:46:29;4.93;;;4.53;;
15104;SDS011;7653;48.994;9.212;2022-07-30T04:48:55;5.07;;;4.53;;
15104;SDS011;7653;48.994;9.212;2022-07-30T04:51:36;5.10;;;4.67;;
15104;SDS011;7653;48.994;9.212;2022-07-30T04:54:27;5.10;;;4.60;;
15104;SDS011;7653;48.994;9.212;2022-07-30T04:57:01;4.63;;;4.20;;
15104;SDS011;7653;48.994;9.212;2022-07-30T04:59:28;4.80;;;4.30;;
15104;SDS011;7653;48.994;9.212;2022-07-30T05:01:55;4.57;;;4.17;;
15104;SDS011;7653;48.994;9.212;2022-07-30T05:04:23;6.13;;;4.73;;
15104;SDS011;7653;48.994;9.212;2022-07-30T05:06:50;4.50;;;4.07;;
15104;SDS011;7653;48.994;9.212;2022-07-30T05:09:24;5.20;;;4.70;;
15104;SDS011;7653;48.994;9.212;2022-07-30T05:11:51;4.77;;;4.20;;
15104;SDS011;7653;48.994;9.212;2022-07-30T05:14:42;4.50;;;4.10;;
15104;SDS011;7653;48.994;9.212;2022-07-30T05:17:10;5.83;;;4.20;;
15104;SDS011;7653;48.994;9.212;2022-07-30T05:20:01;6.73;;;4.57;;
15104;SDS011;7653;48.994;9.212;2022-07-30T05:22:28;6.30;;;4.47;;
15104;SDS011;7653;48.994;9.212;2022-07-30T05:24:57;5.27;;;4.60;;
15104;SDS011;7653;48.994;9.212;2022-07-30T05:27:27;5.47;;;4.40;;
15104;SDS011;7653;48.994;9.212;2022-07-30T05:29:54;5.37;;;4.73;;
15104;SDS011;7653;48.994;9.212;2022-07-30T05:32:26;5.17;;;4.67;;
15104;SDS011;7653;48.994;9.212;2022-07-30T05:34:52;5.50;;;4.80;;
15104;SDS011;7653;48.994;9.212;2022-07-30T05:37:28;4.60;;;4.20;;
15104;SDS011;7653;48.994;9.212;2022-07-30T05:40:11;5.40;;;4.90;;
15104;SDS011;7653;48.994;9.212;2022-07-30T05:42:57;5.57;;;4.30;;
15104;SDS011;7653;48.994;9.212;2022-07-30T05:45:30;4.87;;;4.47;;
15104;SDS011;7653;48.994;9.212;2022-07-30T05:48:07;4.83;;;4.33;;
15104;SDS011;7653;48.994;9.212;2022-07-30T05:50:43;5.83;;;4.57;;
15104;SDS011;7653;48.994;9.212;2022-07-30T05:53:15;5.27;;;4.40;;
15104;SDS011;7653;48.994;9.212;2022-07-30T05:55:41;5.30;;;4.80;;
15104;SDS011;7653;48.994;9.212;2022-07-30T05:58:23;7.03;;;4.73;;
15104;SDS011;7653;48.994;9.212;2022-07-30T06:00:49;5.37;;;4.53;;
15104;SDS011;7653;48.994;9.212;2022-07-30T06:03:26;8.13;;;4.50;;
15104;SDS011;7653;48.994;9.212;2022-07-30T06:05:53;4.90;;;4.40;;
15104;SDS011;7653;48.994;9.212;2022-07-30T06:08:40;5.83;;;4.63;;
15104;SDS011;7653;48.994;9.212;2022-07-30T06:11:05;6.87;;;4.30;;
15104;SDS011;7653;48.994;9.212;2022-07-30T06:13:33;5.00;;;4.40;;
15104;SDS011;7653;48.994;9.212;2022-07-30T06:15:59;5.17;;;4.60;;
15104;SDS011;7653;48.994;9.212;2022-07-30T06:18:27;6.67;;;4.07;;
15104;SDS011;7653;48.994;9.212;2022-07-30T06:20:53;5.93;;;4.23;;
15104;SDS011;7653;48.994;9.212;2022-07-30T06:23:29;5.27;;;4.43;;
15104;SDS011;7653;48.994;9.212;2022-07-30T06:26:00;4.43;;;3.97;;
15104;SDS011;7653;48.994;9.212;2022-07-30T06:28:30;7.57;;;3.93;;
15104;SDS011;7653;48.994;9.212;2022-07-30T06:31:11;6.43;;;4.50;;
15104;SDS011;7653;48.994;9.212;2022-07-30T06:33:41;6.83;;;4.50;;
15104;SDS011;7653;48.994;9.212;2022-07-30T06:36:11;5.30;;;3.97;;
15104;SDS011;7653;48.994;9.212;2022-07-30T06:38:37;5.43;;;4.33;;
15104;SDS011;7653;48.994;9.212;2022-07-30T06:41:14;5.17;;;4.10;;
15104;SDS011;7653;48.994;9.212;2022-07-30T06:43:40;5.37;;;4.43;;
15104;SDS011;7653;48.994;9.212;2022-07-30T06:46:05;4.47;;;3.87;;
15104;SDS011;7653;48.994;9.212;2022-07-30T06:48:50;4.57;;;3.50;;
15104;SDS011;7653;48.994;9.212;2022-07-30T06:51:26;6.50;;;4.23;;
15104;SDS011;7653;48.994;9.212;2022-07-30T06:53:54;5.90;;;4.40;;
15104;SDS011;7653;48.994;9.212;2022-07-30T06:56:21;6.80;;;3.67;;
15104;SDS011;7653;48.994;9.212;2022-07-30T06:58:46;7.13;;;4.33;;
15104;SDS011;7653;48.994;9.212;2022-07-30T07:01:12;7.43;;;4.30;;
15104;SDS011;7653;48.994;9.212;2022-07-30T07:03:49;6.70;;;4.60;;
15104;SDS011;7653;48.994;9.212;2022-07-30T07:06:18;6.93;;;4.63;;
15104;SDS011;7653;48.994;9.212;2022-07-30T07:08:43;6.53;;;4.80;;
15104;SDS011;7653;48.994;9.212;2022-07-30T07:11:09;5.53;;;4.20;;
15104;SDS011;7653;48.994;9.212;2022-07-30T07:13:42;4.47;;;3.80;;
15104;SDS011;7653;48.994;9.212;2022-07-30T07:16:07;4.43;;;3.87;;
15104;SDS011;7653;48.994;9.212;2022-07-30T07:18:33;5.37;;;3.73;;
15104;SDS011;7653;48.994;9.212;2022-07-30T07:20:59;5.03;;;4.00;;
15104;SDS011;7653;48.994;9.212;2022-07-30T07:23:24;5.90;;;3.83;;
15104;SDS011;7653;48.994;9.212;2022-07-30T07:25:50;4.23;;;3.77;;
15104;SDS011;7653;48.994;9.212;2022-07-30T07:28:15;5.13;;;3.20;;
15104;SDS011;7653;48.994;9.212;2022-07-30T07:30:41;7.00;;;3.70;;
15104;SDS011;7653;48.994;9.212;2022-07-30T07:33:11;5.93;;;3.63;;
15104;SDS011;7653;48.994;9.212;2022-07-30T07:35:37;6.00;;;3.67;;
15104;SDS011;7653;48.994;9.212;2022-07-30T07:38:03;4.60;;;3.80;;
15104;SDS011;7653;48.994;9.212;2022-07-30T07:40:31;6.17;;;3.77;;
15104;SDS011;7653;48.994;9.212;2022-07-30T07:42:59;6.73;;;4.07;;
15104;SDS011;7653;48.994;9.212;2022-07-30T07:45:30;5.27;;;3.93;;
15104;SDS011;7653;48.994;9.212;2022-07-30T07:47:56;5.30;;;4.23;;
15104;SDS011;7653;48.994;9.212;2022-07-30T07:50:22;5.70;;;4.40;;
15104;SDS011;7653;48.994;9.212;2022-07-30T07:52:48;7.33;;;5.80;;
15104;SDS011;7653;48.994;9.212;2022-07-30T07:55:14;9.97;;;4.00;;
15104;SDS011;7653;48.994;9.212;2022-07-30T07:57:41;7.17;;;4.30;;
15104;SDS011;7653;48.994;9.212;2022-07-30T08:00:15;5.50;;;3.70;;
15104;SDS011;7653;48.994;9.212;2022-07-30T08:02:43;6.53;;;4.33;;
15104;SDS011;7653;48.994;9.212;2022-07-30T08:05:09;5.27;;;3.87;;
15104;SDS011;7653;48.994;9.212;2022-07-30T08:07:37;4.93;;;3.53;;
15104;SDS011;7653;48.994;9.212;2022-07-30T08:10:03;7.83;;;4.20;;
15104;SDS011;7653;48.994;9.212;2022-07-30T08:12:29;6.07;;;4.53;;
15104;SDS011;7653;48.994;9.212;2022-07-30T08:14:55;6.57;;;4.80;;
15104;SDS011;7653;48.994;9.212;2022-07-30T08:17:53;5.63;;;4.13;;
15104;SDS011;7653;48.994;9.212;2022-07-30T08:20:25;5.23;;;3.70;;
15104;SDS011;7653;48.994;9.212;2022-07-30T08:22:50;6.17;;;3.57;;
15104;SDS011;7653;48.994;9.212;2022-07-30T08:25:16;5.63;;;4.30;;
15104;SDS011;7653;48.994;9.212;2022-07-30T08:27:43;8.47;;;4.20;;
15104;SDS011;7653;48.994;9.212;2022-07-30T08:30:09;4.23;;;2.43;;
15104;SDS011;7653;48.994;9.212;2022-07-30T08:32:36;6.07;;;3.07;;
15104;SDS011;7653;48.994;9.212;2022-07-30T08:35:03;5.20;;;3.63;;
15104;SDS011;7653;48.994;9.212;2022-07-30T08:37:29;5.93;;;3.93;;
15104;SDS011;7653;48.994;9.212;2022-07-30T08:39:55;4.00;;;3.43;;
15104;SDS011;7653;48.994;9.212;2022-07-30T08:42:20;4.27;;;3.30;;
15104;SDS011;7653;48.994;9.212;2022-07-30T08:44:49;6.57;;;4.23;;
15104;SDS011;7653;48.994;9.212;2022-07-30T08:47:44;4.43;;;3.30;;
15104;SDS011;7653;48.994;9.212;2022-07-30T08:50:12;4.93;;;3.30;;
15104;SDS011;7653;48.994;9.212;2022-07-30T08:52:38;6.00;;;3.97;;
15104;SDS011;7653;48.994;9.212;2022-07-30T08:55:05;9.27;;;4.13;;
15104;SDS011;7653;48.994;9.212;2022-07-30T08:57:32;4.77;;;3.90;;
15104;SDS011;7653;48.994;9.212;2022-07-30T08:59:59;3.67;;;2.50;;
15104;SDS011;7653;48.994;9.212;2022-07-30T09:02:25;4.10;;;2.90;;
15104;SDS011;7653;48.994;9.212;2022-07-30T09:04:51;4.40;;;3.07;;
15104;SDS011;7653;48.994;9.212;2022-07-30T09:07:18;5.03;;;3.30;;
15104;SDS011;7653;48.994;9.212;2022-07-30T09:09:44;4.87;;;3.17;;
15104;SDS011;7653;48.994;9.212;2022-07-30T09:15:11;4.23;;;3.07;;
15104;SDS011;7653;48.994;9.212;2022-07-30T09:20:17;4.33;;;3.30;;
15104;SDS011;7653;48.994;9.212;2022-07-30T09:22:50;7.87;;;3.50;;
15104;SDS011;7653;48.994;9.212;2022-07-30T09:28:03;3.20;;;2.90;;
15104;SDS011;7653;48.994;9.212;2022-07-30T09:30:41;4.70;;;3.30;;
15104;SDS011;7653;48.994;9.212;2022-07-30T09:33:10;5.37;;;2.80;;
15104;SDS011;7653;48.994;9.212;2022-07-30T09:35:36;5.53;;;3.17;;
15104;SDS011;7653;48.994;9.212;2022-07-30T09:38:02;3.93;;;3.00;;
15104;SDS011;7653;48.994;9.212;2022-07-30T09:40:29;3.17;;;2.87;;
15104;SDS011;7653;48.994;9.212;2022-07-30T09:43:08;2.80;;;2.50;;
15104;SDS011;7653;48.994;9.212;2022-07-30T09:45:35;3.73;;;2.80;;
15104;SDS011;7653;48.994;9.212;2022-07-30T09:48:21;4.20;;;2.77;;
15104;SDS011;7653;48.994;9.212;2022-07-30T09:50:48;6.77;;;3.00;;
15104;SDS011;7653;48.994;9.212;2022-07-30T09:53:15;3.27;;;2.97;;
15104;SDS011;7653;48.994;9.212;2022-07-30T09:55:41;4.90;;;3.40;;
15104;SDS011;7653;48.994;9.212;2022-07-30T09:58:07;6.10;;;2.90;;
15104;SDS011;7653;48.994;9.212;2022-07-30T10:00:34;4.23;;;2.77;;
15104;SDS011;7653;48.994;9.212;2022-07-30T10:03:00;5.93;;;2.97;;
15104;SDS011;7653;48.994;9.212;2022-07-30T10:05:38;4.87;;;3.17;;
15104;SDS011;7653;48.994;9.212;2022-07-30T10:08:16;4.27;;;2.67;;
15104;SDS011;7653;48.994;9.212;2022-07-30T10:10:42;3.67;;;2.90;;
15104;SDS011;7653;48.994;9.212;2022-07-30T10:13:09;4.70;;;3.00;;
15104;SDS011;7653;48.994;9.212;2022-07-30T10:15:38;4.00;;;3.07;;
15104;SDS011;7653;48.994;9.212;2022-07-30T10:18:06;5.23;;;3.07;;
15104;SDS011;7653;48.994;9.212;2022-07-30T10:20:31;5.70;;;3.47;;
15104;SDS011;7653;48.994;9.212;2022-07-30T10:22:57;4.80;;;3.20;;
15104;SDS011;7653;48.994;9.212;2022-07-30T10:25:24;5.10;;;3.07;;
15104;SDS011;7653;48.994;9.212;2022-07-30T10:27:51;2.60;;;2.40;;
15104;SDS011;7653;48.994;9.212;2022-07-30T10:30:17;4.20;;;2.70;;
15104;SDS011;7653;48.994;9.212;2022-07-30T10:32:43;3.13;;;2.70;;
15104;SDS011;7653;48.994;9.212;2022-07-30T10:35:11;4.17;;;2.60;;
15104;SDS011;7653;48.994;9.212;2022-07-30T10:37:39;3.20;;;2.00;;
15104;SDS011;7653;48.994;9.212;2022-07-30T10:40:20;5.73;;;2.83;;
15104;SDS011;7653;48.994;9.212;2022-07-30T10:43:05;6.10;;;2.53;;
15104;SDS011;7653;48.994;9.212;2022-07-30T10:48:33;7.50;;;2.93;;
15104;SDS011;7653;48.994;9.212;2022-07-30T10:51:05;5.03;;;2.73;;
15104;SDS011;7653;48.994;9.212;2022-07-30T10:53:34;4.37;;;2.70;;
15104;SDS011;7653;48.994;9.212;2022-07-30T10:56:11;6.23;;;3.10;;
15104;SDS011;7653;48.994;9.212;2022-07-30T10:59:04;5.33;;;2.30;;
15104;SDS011;7653;48.994;9.212;2022-07-30T11:09:56;6.00;;;2.67;;
15104;SDS011;7653;48.994;9.212;2022-07-30T11:13:09;2.77;;;2.10;;
15104;SDS011;7653;48.994;9.212;2022-07-30T11:15:12;2.47;;;2.27;;
15104;SDS011;7653;48.994;9.212;2022-07-30T11:20:37;4.13;;;2.07;;
15104;SDS011;7653;48.994;9.212;2022-07-30T11:25:45;3.90;;;1.90;;
15104;SDS011;7653;48.994;9.212;2022-07-30T11:42:25;3.27;;;1.63;;
15104;SDS011;7653;48.994;9.212;2022-07-30T11:44:52;3.90;;;1.87;;
15104;SDS011;7653;48.994;9.212;2022-07-30T11:47:20;2.10;;;1.67;;
15104;SDS011;7653;48.994;9.212;2022-07-30T11:49:57;2.47;;;1.80;;
15104;SDS011;7653;48.994;9.212;2022-07-30T11:52:22;2.43;;;1.63;;
15104;SDS011;7653;48.994;9.212;2022-07-30T11:54:51;1.90;;;1.70;;
15104;SDS011;7653;48.994;9.212;2022-07-30T11:57:18;2.03;;;1.47;;
15104;SDS011;7653;48.994;9.212;2022-07-30T11:59:54;2.73;;;1.70;;
15104;SDS011;7653;48.994;9.212;2022-07-30T12:02:26;2.60;;;1.60;;
15104;SDS011;7653;48.994;9.212;2022-07-30T12:04:54;4.68;;;1.90;;
15104;SDS011;7653;48.994;9.212;2022-07-30T12:07:23;2.50;;;1.70;;
15104;SDS011;7653;48.994;9.212;2022-07-30T12:09:50;2.50;;;1.60;;
15104;SDS011;7653;48.994;9.212;2022-07-30T12:12:33;4.35;;;1.80;;
15104;SDS011;7653;48.994;9.212;2022-07-30T12:15:31;2.15;;;1.75;;
15104;SDS011;7653;48.994;9.212;2022-07-30T12:17:59;3.53;;;1.98;;
15104;SDS011;7653;48.994;9.212;2022-07-30T12:20:28;2.38;;;1.60;;
15104;SDS011;7653;48.994;9.212;2022-07-30T12:22:55;3.10;;;1.85;;
15104;SDS011;7653;48.994;9.212;2022-07-30T12:25:27;3.47;;;1.83;;
15104;SDS011;7653;48.994;9.212;2022-07-30T12:27:53;5.95;;;2.25;;
15104;SDS011;7653;48.994;9.212;2022-07-30T12:30:22;2.30;;;1.90;;
15104;SDS011;7653;48.994;9.212;2022-07-30T12:33:04;3.67;;;2.00;;
15104;SDS011;7653;48.994;9.212;2022-07-30T12:38:27;2.58;;;1.85;;
15104;SDS011;7653;48.994;9.212;2022-07-30T12:40:57;2.15;;;1.80;;
15104;SDS011;7653;48.994;9.212;2022-07-30T12:46:09;2.10;;;1.90;;
15104;SDS011;7653;48.994;9.212;2022-07-30T12:48:35;2.92;;;1.92;;
15104;SDS011;7653;48.994;9.212;2022-07-30T12:51:07;2.13;;;1.92;;
15104;SDS011;7653;48.994;9.212;2022-07-30T12:53:34;2.80;;;1.75;;
15104;SDS011;7653;48.994;9.212;2022-07-30T12:56:10;1.80;;;1.70;;
15104;SDS011;7653;48.994;9.212;2022-07-30T12:58:37;1.80;;;1.70;;
15104;SDS011;7653;48.994;9.212;2022-07-30T13:01:03;4.15;;;2.10;;
15104;SDS011;7653;48.994;9.212;2022-07-30T13:03:28;4.03;;;2.00;;
15104;SDS011;7653;48.994;9.212;2022-07-30T13:06:10;2.33;;;2.10;;
15104;SDS011;7653;48.994;9.212;2022-07-30T13:08:49;2.78;;;1.90;;
15104;SDS011;7653;48.994;9.212;2022-07-30T13:11:23;1.92;;;1.75;;
15104;SDS011;7653;48.994;9.212;2022-07-30T13:13:50;5.53;;;1.73;;
15104;SDS011;7653;48.994;9.212;2022-07-30T13:16:17;3.22;;;2.00;;
15104;SDS011;7653;48.994;9.212;2022-07-30T13:18:44;1.83;;;1.63;;
15104;SDS011;7653;48.994;9.212;2022-07-30T13:21:10;2.53;;;1.70;;
15104;SDS011;7653;48.994;9.212;2022-07-30T13:23:36;3.15;;;1.70;;
15104;SDS011;7653;48.994;9.212;2022-07-30T13:26:05;4.68;;;1.92;;
15104;SDS011;7653;48.994;9.212;2022-07-30T13:29:39;5.50;;;1.55;;
15104;SDS011;7653;48.994;9.212;2022-07-30T13:32:05;1.67;;;1.58;;
15104;SDS011;7653;48.994;9.212;2022-07-30T13:34:31;2.50;;;1.60;;
15104;SDS011;7653;48.994;9.212;2022-07-30T13:36:56;1.65;;;1.40;;
15104;SDS011;7653;48.994;9.212;2022-07-30T13:39:22;1.52;;;1.40;;
15104;SDS011;7653;48.994;9.212;2022-07-30T13:41:47;2.00;;;1.80;;
15104;SDS011;7653;48.994;9.212;2022-07-30T13:44:13;4.10;;;1.70;;
15104;SDS011;7653;48.994;9.212;2022-07-30T13:46:39;2.80;;;1.80;;
15104;SDS011;7653;48.994;9.212;2022-07-30T13:49:04;4.05;;;1.77;;
15104;SDS011;7653;48.994;9.212;2022-07-30T13:51:30;1.90;;;1.50;;
15104;SDS011;7653;48.994;9.212;2022-07-30T13:53:55;2.70;;;1.85;;
15104;SDS011;7653;48.994;9.212;2022-07-30T13:56:21;3.08;;;1.70;;
15104;SDS011;7653;48.994;9.212;2022-07-30T13:58:47;3.90;;;1.90;;
15104;SDS011;7653;48.994;9.212;2022-07-30T14:01:13;3.55;;;1.55;;
15104;SDS011;7653;48.994;9.212;2022-07-30T14:03:39;4.25;;;1.70;;
15104;SDS011;7653;48.994;9.212;2022-07-30T14:06:04;2.08;;;1.70;;
15104;SDS011;7653;48.994;9.212;2022-07-30T14:08:30;1.60;;;1.50;;
15104;SDS011;7653;48.994;9.212;2022-07-30T14:10:56;2.60;;;1.27;;
15104;SDS011;7653;48.994;9.212;2022-07-30T14:13:22;1.50;;;1.40;;
15104;SDS011;7653;48.994;9.212;2022-07-30T14:15:49;2.95;;;1.60;;
15104;SDS011;7653;48.994;9.212;2022-07-30T14:18:15;2.38;;;1.58;;
15104;SDS011;7653;48.994;9.212;2022-07-30T14:20:41;2.08;;;1.60;;
15104;SDS011;7653;48.994;9.212;2022-07-30T14:23:06;2.08;;;1.48;;
15104;SDS011;7653;48.994;9.212;2022-07-30T14:25:33;3.60;;;1.50;;
15104;SDS011;7653;48.994;9.212;2022-07-30T14:27:58;3.75;;;1.45;;
15104;SDS011;7653;48.994;9.212;2022-07-30T14:30:24;1.50;;;1.40;;
15104;SDS011;7653;48.994;9.212;2022-07-30T14:32:50;2.60;;;1.50;;
15104;SDS011;7653;48.994;9.212;2022-07-30T14:35:15;3.67;;;1.60;;
15104;SDS011;7653;48.994;9.212;2022-07-30T14:37:41;3.08;;;1.80;;
15104;SDS011;7653;48.994;9.212;2022-07-30T14:40:43;1.50;;;1.40;;
15104;SDS011;7653;48.994;9.212;2022-07-30T14:43:10;2.10;;;1.50;;
15104;SDS011;7653;48.994;9.212;2022-07-30T14:45:38;2.13;;;1.30;;
15104;SDS011;7653;48.994;9.212;2022-07-30T14:48:04;3.15;;;1.65;;
15104;SDS011;7653;48.994;9.212;2022-07-30T14:50:30;3.20;;;1.25;;
15104;SDS011;7653;48.994;9.212;2022-07-30T14:52:56;1.70;;;1.33;;
15104;SDS011;7653;48.994;9.212;2022-07-30T14:55:21;1.88;;;1.60;;
15104;SDS011;7653;48.994;9.212;2022-07-30T14:57:47;2.58;;;1.35;;
15104;SDS011;7653;48.994;9.212;2022-07-30T15:00:13;1.70;;;1.33;;
15104;SDS011;7653;48.994;9.212;2022-07-30T15:02:39;2.17;;;1.25;;
15104;SDS011;7653;48.994;9.212;2022-07-30T15:05:05;3.50;;;1.20;;
15104;SDS011;7653;48.994;9.212;2022-07-30T15:07:31;1.48;;;1.27;;
15104;SDS011;7653;48.994;9.212;2022-07-30T15:09:57;1.60;;;1.38;;
15104;SDS011;7653;48.994;9.212;2022-07-30T15:12:24;2.67;;;1.30;;
15104;SDS011;7653;48.994;9.212;2022-07-30T15:14:52;1.30;;;1.20;;
15104;SDS011;7653;48.994;9.212;2022-07-30T15:17:19;1.85;;;1.23;;
15104;SDS011;7653;48.994;9.212;2022-07-30T15:19:45;3.08;;;1.58;;
15104;SDS011;7653;48.994;9.212;2022-07-30T15:22:11;1.40;;;1.23;;
15104;SDS011;7653;48.994;9.212;2022-07-30T15:24:39;1.50;;;1.15;;
15104;SDS011;7653;48.994;9.212;2022-07-30T15:27:05;2.00;;;1.38;;
15104;SDS011;7653;48.994;9.212;2022-07-30T15:29:31;1.80;;;1.30;;
15104;SDS011;7653;48.994;9.212;2022-07-30T15:31:58;3.05;;;1.40;;
15104;SDS011;7653;48.994;9.212;2022-07-30T15:34:25;2.00;;;1.50;;
15104;SDS011;7653;48.994;9.212;2022-07-30T15:36:52;3.28;;;1.80;;
15104;SDS011;7653;48.994;9.212;2022-07-30T15:39:18;1.95;;;1.40;;
15104;SDS011;7653;48.994;9.212;2022-07-30T15:41:44;2.40;;;1.50;;
15104;SDS011;7653;48.994;9.212;2022-07-30T15:44:18;1.60;;;1.40;;
15104;SDS011;7653;48.994;9.212;2022-07-30T15:49:27;3.05;;;1.40;;
15104;SDS011;7653;48.994;9.212;2022-07-30T15:51:54;3.15;;;1.23;;
15104;SDS011;7653;48.994;9.212;2022-07-30T15:54:23;1.40;;;1.10;;
15104;SDS011;7653;48.994;9.212;2022-07-30T15:56:52;2.47;;;1.35;;
15104;SDS011;7653;48.994;9.212;2022-07-30T15:59:34;2.38;;;1.52;;
15104;SDS011;7653;48.994;9.212;2022-07-30T16:01:59;2.65;;;1.05;;
15104;SDS011;7653;48.994;9.212;2022-07-30T16:04:25;1.10;;;1.00;;
15104;SDS011;7653;48.994;9.212;2022-07-30T16:06:51;2.63;;;1.17;;
15104;SDS011;7653;48.994;9.212;2022-07-30T16:09:21;3.65;;;1.55;;
15104;SDS011;7653;48.994;9.212;2022-07-30T16:11:47;2.33;;;1.45;;
15104;SDS011;7653;48.994;9.212;2022-07-30T16:14:13;1.85;;;1.42;;
15104;SDS011;7653;48.994;9.212;2022-07-30T16:16:39;1.58;;;1.48;;
15104;SDS011;7653;48.994;9.212;2022-07-30T16:19:05;2.22;;;1.48;;
15104;SDS011;7653;48.994;9.212;2022-07-30T16:21:31;2.78;;;1.65;;
15104;SDS011;7653;48.994;9.212;2022-07-30T16:23:57;2.25;;;1.40;;
15104;SDS011;7653;48.994;9.212;2022-07-30T16:26:23;1.95;;;1.50;;
15104;SDS011;7653;48.994;9.212;2022-07-30T16:28:57;1.50;;;1.40;;
15104;SDS011;7653;48.994;9.212;2022-07-30T16:31:22;2.88;;;1.40;;
15104;SDS011;7653;48.994;9.212;2022-07-30T16:33:48;4.75;;;3.30;;
15104;SDS011;7653;48.994;9.212;2022-07-30T16:36:14;1.83;;;1.48;;
15104;SDS011;7653;48.994;9.212;2022-07-30T16:38:40;2.10;;;1.60;;
15104;SDS011;7653;48.994;9.212;2022-07-30T16:41:08;1.50;;;1.40;;
15104;SDS011;7653;48.994;9.212;2022-07-30T16:43:34;2.60;;;1.58;;
15104;SDS011;7653;48.994;9.212;2022-07-30T16:45:59;3.55;;;1.92;;
15104;SDS011;7653;48.994;9.212;2022-07-30T16:48:25;3.55;;;1.48;;
15104;SDS011;7653;48.994;9.212;2022-07-30T16:50:51;2.25;;;1.48;;
15104;SDS011;7653;48.994;9.212;2022-07-30T16:53:16;4.97;;;1.77;;
15104;SDS011;7653;48.994;9.212;2022-07-30T16:55:44;2.10;;;1.40;;
15104;SDS011;7653;48.994;9.212;2022-07-30T16:58:10;2.15;;;1.40;;
15104;SDS011;7653;48.994;9.212;2022-07-30T17:00:36;1.92;;;1.40;;
15104;SDS011;7653;48.994;9.212;2022-07-30T17:03:03;2.55;;;1.55;;
15104;SDS011;7653;48.994;9.212;2022-07-30T17:06:00;1.88;;;1.60;;
15104;SDS011;7653;48.994;9.212;2022-07-30T17:12:16;2.42;;;1.50;;
15104;SDS011;7653;48.994;9.212;2022-07-30T17:14:42;1.77;;;1.30;;
15104;SDS011;7653;48.994;9.212;2022-07-30T17:17:07;3.00;;;1.42;;
15104;SDS011;7653;48.994;9.212;2022-07-30T17:19:33;3.22;;;1.40;;
15104;SDS011;7653;48.994;9.212;2022-07-30T17:21:59;2.42;;;1.23;;
15104;SDS011;7653;48.994;9.212;2022-07-30T17:24:24;1.30;;;1.20;;
15104;SDS011;7653;48.994;9.212;2022-07-30T17:26:50;3.28;;;1.23;;
15104;SDS011;7653;48.994;9.212;2022-07-30T17:29:16;2.55;;;1.33;;
15104;SDS011;7653;48.994;9.212;2022-07-30T17:31:42;2.58;;;1.55;;
15104;SDS011;7653;48.994;9.212;2022-07-30T17:34:09;4.22;;;1.73;;
15104;SDS011;7653;48.994;9.212;2022-07-30T17:36:38;2.50;;;1.45;;
15104;SDS011;7653;48.994;9.212;2022-07-30T17:39:05;1.60;;;1.38;;
15104;SDS011;7653;48.994;9.212;2022-07-30T17:41:32;1.70;;;1.60;;